Bettina K — PBEW — position and weather

sailwx.info

Track history (hours):
 
Tides and Currents Weather Stations Pressure Air Temp Water Temp Dewpoint Dewpoint Depression Visibility Wind Speed Wind Dir Waves Ship Positions

Bettina K

Last reported at 2016-Apr-30 04:33 UTC. Time now 2016-Apr-30 05:17 UTC.
Position N 51°54' E 004°28'.

Length 82 m; draft 4.7 m.

Type: Ship. MMSI: 244730469.

Date/timePositionNaut miles runAvg speedWind from/ knotsBaromVisibWave heightAir tempDewpointWater temp
2016-Apr-30 04:33N 51°54' E 004°28'4 3.6
2016-Apr-30 03:33N 51°54' E 004°22'7 7.1
2016-Apr-30 02:33N 51°56' E 004°12'6 6.4
2016-Apr-30 01:33N 51°59' E 004°02'7 6.7
2016-Apr-30 00:33N 51°59' E 003°52'47 8.7
2016-Apr-29 19:10N 51°46' E 002°39'710.0
2016-Apr-29 18:30N 51°40' E 002°32'1010.2
2016-Apr-29 17:33N 51°33' E 002°22'1010.0
2016-Apr-29 16:33N 51°25' E 002°13'1010.1
2016-Apr-29 15:33N 51°16' E 002°05'1010.0
2016-Apr-29 14:33N 51°09' E 001°53'1010.0
2016-Apr-29 13:31N 51°02' E 001°41'78 8.2
2016-Apr-29 04:04N 50°17' E 000°01'5 9.5
2016-Apr-29 03:33N 50°16' W 000°06'198 9.8
2016-Apr-28 07:29N 48°53' W 004°43'1011.1
2016-Apr-28 06:33N 48°47' W 004°55'1111.2
2016-Apr-28 05:33N 48°41' W 005°09'1410.7
2016-Apr-28 04:13N 48°30' W 005°24'  
2016-Apr-21 14:20N 48°28' W 005°25'6 5.2
2016-Apr-21 13:06N 48°34' W 005°22'4 6.5
2016-Apr-21 12:33N 48°36' W 005°18'7 7.3
2016-Apr-21 11:33N 48°42' W 005°11'10 8.7
2016-Apr-21 10:25N 48°49' W 005°00'78 8.4
2016-Apr-21 01:07N 49°40' W 003°30'5 9.5
2016-Apr-21 00:33N 49°44' W 003°24'10 9.9
2016-Apr-20 23:34N 49°49' W 003°11'10 9.6
2016-Apr-20 22:33N 49°55' W 002°60'10 8.7
2016-Apr-20 21:28N 49°59' W 002°46'7 7.7
2016-Apr-20 20:33N 50°01' W 002°36'14 6.3
2016-Apr-20 18:20N 50°06' W 002°16'12 6.9
2016-Apr-20 16:33N 50°10' W 001°57'24 9.9
2016-Apr-20 14:05N 50°16' W 001°21'611.5
2016-Apr-20 13:33N 50°18' W 001°11'3210.6
2016-Apr-20 10:33N 50°26' W 000°23'9 8.5
2016-Apr-20 09:33N 50°29' W 000°10'8 8.2
2016-Apr-20 08:33N 50°31' E 000°02'8 7.7
2016-Apr-20 07:33N 50°34' E 000°13'9 8.0
2016-Apr-20 06:29N 50°37' E 000°26'  
Track history (hours):
 
Tides and Currents Weather Stations Pressure Air Temp Water Temp Dewpoint Dewpoint Depression Visibility Wind Speed Wind Dir Waves Ship Positions

Bettina K

Last reported at 2016-Apr-30 04:33 UTC. Time now 2016-Apr-30 05:17 UTC.
Position N 51°54' E 004°28'.

Length 82 m; draft 4.7 m.

Type: Ship. MMSI: 244730469.

Date/timePositionNaut miles runAvg speedWind from/ knotsBaromVisibWave heightAir tempDewpointWater temp
2016-Apr-30 04:33N 51°54' E 004°28'4 3.6
2016-Apr-30 03:33N 51°54' E 004°22'7 7.1
2016-Apr-30 02:33N 51°56' E 004°12'6 6.4
2016-Apr-30 01:33N 51°59' E 004°02'7 6.7
2016-Apr-30 00:33N 51°59' E 003°52'47 8.7
2016-Apr-29 19:10N 51°46' E 002°39'710.0
2016-Apr-29 18:30N 51°40' E 002°32'1010.2
2016-Apr-29 17:33N 51°33' E 002°22'1010.0
2016-Apr-29 16:33N 51°25' E 002°13'1010.1
2016-Apr-29 15:33N 51°16' E 002°05'1010.0
2016-Apr-29 14:33N 51°09' E 001°53'1010.0
2016-Apr-29 13:31N 51°02' E 001°41'78 8.2
2016-Apr-29 04:04N 50°17' E 000°01'5 9.5
2016-Apr-29 03:33N 50°16' W 000°06'198 9.8
2016-Apr-28 07:29N 48°53' W 004°43'1011.1
2016-Apr-28 06:33N 48°47' W 004°55'1111.2
2016-Apr-28 05:33N 48°41' W 005°09'1410.7
2016-Apr-28 04:13N 48°30' W 005°24'  
2016-Apr-21 14:20N 48°28' W 005°25'6 5.2
2016-Apr-21 13:06N 48°34' W 005°22'4 6.5
2016-Apr-21 12:33N 48°36' W 005°18'7 7.3
2016-Apr-21 11:33N 48°42' W 005°11'10 8.7
2016-Apr-21 10:25N 48°49' W 005°00'78 8.4
2016-Apr-21 01:07N 49°40' W 003°30'5 9.5
2016-Apr-21 00:33N 49°44' W 003°24'10 9.9
2016-Apr-20 23:34N 49°49' W 003°11'10 9.6
2016-Apr-20 22:33N 49°55' W 002°60'10 8.7
2016-Apr-20 21:28N 49°59' W 002°46'7 7.7
2016-Apr-20 20:33N 50°01' W 002°36'14 6.3
2016-Apr-20 18:20N 50°06' W 002°16'12 6.9
2016-Apr-20 16:33N 50°10' W 001°57'24 9.9
2016-Apr-20 14:05N 50°16' W 001°21'611.5
2016-Apr-20 13:33N 50°18' W 001°11'3210.6
2016-Apr-20 10:33N 50°26' W 000°23'9 8.5
2016-Apr-20 09:33N 50°29' W 000°10'8 8.2
2016-Apr-20 08:33N 50°31' E 000°02'8 7.7
2016-Apr-20 07:33N 50°34' E 000°13'9 8.0
2016-Apr-20 06:29N 50°37' E 000°26'  

Dump ship's entire track history